Nearby METAR Reports

 

KSJC - San Jose, California, USA
Distance from station: NE 14km
Actualización: 30/07/2021 03:53
Parcialmente nuboso
Parcialmente nuboso
 Viento del NNO
Viento: NNO 15 km/h
Temperatura: 24°C
Rocío: 14°C
Humedad: 54%
Barómetro: 1011.5 hPa
Clouds: Parcialmente nuboso
Visibility: 16 km
Cloud details: Few Clouds 1981 m
Parcialmente nuboso 3048 m
Parcialmente nuboso 4877 m
2021/07/30 01:53 KSJC 300153Z 33008KT 10SM FEW065 SCT100 SCT160 24/14 A2987 RMK AO2 SLP115 T02440144
KNUQ - Moffett Nas/Mtn, California, USA
Distance from station: N 14km
Actualización: 30/07/2021 03:50
Despejado
Despejado
 Viento del NNO
Viento: NNO 13 km/h
Temperatura: 23°C
Rocío: 15°C
Humedad: 61%
Barómetro: 1011.9 hPa
Clouds: Despejado
Visibility: 16 km
2021/07/30 01:50 KNUQ 300150Z AUTO 34007KT 10SM CLR 23/15 A2988 RMK AO2
 
KPAO - Palo Alto, California, USA
Distance from station: NNO 23km
Actualización: 30/07/2021 03:47
Despejado
Despejado
 Viento del NNO
Viento: NNO 15 km/h
Temperatura: 22°C
Rocío: 15°C
Humedad: 65%
Barómetro: 1012.2 hPa
Clouds: Despejado
Visibility: 16 km
2021/07/30 01:47 KPAO 300147Z 33008KT 10SM SKC 22/15 A2989
KRHV - San Jose/Reid, California, USA
Distance from station: ENE 19km
Actualización: 30/07/2021 03:47
Muy nuboso
Muy nuboso
 Viento del ONO
Viento: ONO 15 km/h
Temperatura: 27°C
Heat Index: 27°C
Rocío: 15°C
Humedad: 48%
Barómetro: 1011.9 hPa
Clouds: Muy nuboso
Visibility: 16 km
Cloud details: Parcialmente nuboso 3048 m
Muy nuboso 4877 m
2021/07/30 01:47 KRHV 300147Z 30008KT 10SM SCT100 BKN160 27/15 A2988
 
KOAK - Oakland, California, USA
Distance from station: NNO 50km
Actualización: 30/07/2021 03:53
Muy nuboso
Muy nuboso
 Viento del ONO
Viento: ONO 24 km/h
Temperatura: 19°C
Rocío: 14°C
Humedad: 73%
Barómetro: 1012.2 hPa
Clouds: Muy nuboso
Visibility: 16 km
Cloud details: Few Clouds 183 m
Few Clouds 6096 m
Muy nuboso 6706 m
2021/07/30 01:53 KOAK 300153Z 30013KT 10SM FEW006 FEW200 BKN220 19/14 A2989 RMK AO2 SLP120 T01890139
KSQL - San Carlos Airpo, California, USA
Distance from station: NO 34km
Actualización: 30/07/2021 03:47
Muy nuboso
Muy nuboso
 Viento del N
Viento: N 15 km/h
Temperatura: 22°C
Rocío: 17°C
Humedad: 73%
Barómetro: 1012.2 hPa
Clouds: Muy nuboso
Visibility: 16 km
Cloud details: Muy nuboso 6096 m
2021/07/30 01:47 KSQL 300147Z 35008KT 10SM BKN200 22/17 A2989
 
KSFO - San Francisco, California, USA
Distance from station: NO 49km
Actualización: 30/07/2021 03:56
Muy nuboso
Muy nuboso
 Viento del NO
Viento: NO 24 km/h
Temperatura: 18°C
Rocío: 13°C
Humedad: 73%
Barómetro: 1011.9 hPa
Clouds: Muy nuboso
Visibility: 16 km
Cloud details: Few Clouds 122 m
Muy nuboso 5486 m
Muy nuboso 6096 m
2021/07/30 01:56 KSFO 300156Z 31013KT 10SM FEW004 BKN180 BKN200 18/13 A2988 RMK AO2 SLP116 T01830133 $
KE16 - San Martin, California, USA
Distance from station: ESE 43km
Actualización: 30/07/2021 03:55
Despejado
Despejado
 Viento del SE
Viento: SE 19 km/h
Temperatura: 24°C
Rocío: 14°C
Humedad: 54%
Barómetro: 1012.2 hPa
Clouds: Despejado
Visibility: 16 km
2021/07/30 01:55 KE16 300155Z AUTO 14010KT 10SM CLR 24/14 A2989 RMK AO2 PWINO PNO
 
KWVI - Watsonville, California, USA
Distance from station: SSE 44km
Actualización: 30/07/2021 03:53
Cubierto
Cubierto
 Viento del OSO
Viento: OSO 11 km/h
Temperatura: 16°C
Rocío: 14°C
Humedad: 88%
Barómetro: 1013.5 hPa
Clouds: Cubierto
Visibility: 16 km
Cloud details: Cubierto 152 m
2021/07/30 01:53 KWVI 300153Z AUTO 24006KT 10SM OVC005 16/14 A2993 RMK AO2 SLP136 T01610139
KHAF - Half Moon Bay, California, USA
Distance from station: ONO 50km
Actualización: 09/07/2021 16:35
NOT Current
Lluvia débil, Despejado
Lluvia débil, Despejado
 
Temperatura: 13°C
Rocío: 12°C
Humedad: 94%
Barómetro: 1012.9 hPa
Resumen: Lluvia débil
Clouds: Despejado
Visibility: 6 km
2021/07/09 14:35 KHAF 091435Z AUTO 4SM -RA CLR 13/12 A2991 RMK AO2
 
KHWD - Hayward, California, USA
Distance from station: N 44km
Actualización: 30/07/2021 03:54
Despejado
Despejado
 Viento del ONO
Viento: ONO 15 km/h
Temperatura: 21°C
Rocío: 15°C
Humedad: 69%
Barómetro: 1011.9 hPa
Clouds: Despejado
Visibility: 16 km
2021/07/30 01:54 KHWD 300154Z 29008KT 10SM CLR 21/15 A2988 RMK AO2 SLP126 T02110150
KLVK - Livermore, California, USA
Distance from station: NNE 51km
Actualización: 30/07/2021 03:53
Despejado
Despejado
 Viento del ONO
Viento: ONO 19 km/h
Temperatura: 31°C
Rocío: 8°C
Humedad: 24%
Barómetro: 1011.2 hPa
Clouds: Despejado
Visibility: 16 km
2021/07/30 01:53 KLVK 300153Z 29010KT 10SM CLR 31/08 A2986 RMK AO2 SLP106 T03060078